Terminal Aerodrome Forecast
Issued by NWS

Home | Current Version | Previous Version | Text Only | Print | Product List | Glossary On
Versions: 1 2 3 4 5 6 7 8 9 10 11 12 13 14 15 16 17 18 19 20 21 22 23
238
FTUS46 KEKA 301121
TAFCEC
TAF
KCEC 301121Z 3012/0112 35015G20KT P6SM SKC
     FM301600 34020G28KT P6SM SKC
     FM301800 34028G35KT P6SM SKC
     FM010200 34022G30KT P6SM SKC
     FM010500 35015G20KT P6SM SKC
     FM010900 36010G18KT P6SM SKC=

USA.gov is the U.S. government's official web portal to all federal, state and local government web resources and services.